sensor_id;sensor_type;location;lat;lon;timestamp;temperature;humidity
44843;DHT22;31884;52.538;13.820;2023-05-08T00:02:24;6.70;99.90
44843;DHT22;31884;52.538;13.820;2023-05-08T00:04:50;6.70;99.90
44843;DHT22;31884;52.538;13.820;2023-05-08T00:07:15;6.70;99.90
44843;DHT22;31884;52.538;13.820;2023-05-08T00:09:41;6.60;99.90
44843;DHT22;31884;52.538;13.820;2023-05-08T00:12:06;6.60;99.90
44843;DHT22;31884;52.538;13.820;2023-05-08T00:14:32;6.60;99.90
44843;DHT22;31884;52.538;13.820;2023-05-08T00:16:57;6.60;99.90
44843;DHT22;31884;52.538;13.820;2023-05-08T00:19:23;6.60;99.90
44843;DHT22;31884;52.538;13.820;2023-05-08T00:21:48;6.60;99.90
44843;DHT22;31884;52.538;13.820;2023-05-08T00:24:14;6.60;99.90
44843;DHT22;31884;52.538;13.820;2023-05-08T00:26:39;6.60;99.90
44843;DHT22;31884;52.538;13.820;2023-05-08T00:29:06;6.60;99.90
44843;DHT22;31884;52.538;13.820;2023-05-08T00:31:31;6.60;99.90
44843;DHT22;31884;52.538;13.820;2023-05-08T00:33:57;6.60;99.90
44843;DHT22;31884;52.538;13.820;2023-05-08T00:36:22;6.50;99.90
44843;DHT22;31884;52.538;13.820;2023-05-08T00:38:48;6.50;99.90
44843;DHT22;31884;52.538;13.820;2023-05-08T00:41:13;6.50;99.90
44843;DHT22;31884;52.538;13.820;2023-05-08T00:43:40;6.50;99.90
44843;DHT22;31884;52.538;13.820;2023-05-08T00:46:06;6.50;99.90
44843;DHT22;31884;52.538;13.820;2023-05-08T00:48:34;6.40;99.90
44843;DHT22;31884;52.538;13.820;2023-05-08T00:51:03;6.40;99.90
44843;DHT22;31884;52.538;13.820;2023-05-08T00:53:29;6.40;99.90
44843;DHT22;31884;52.538;13.820;2023-05-08T00:55:57;6.40;99.90
44843;DHT22;31884;52.538;13.820;2023-05-08T00:58:25;6.30;99.90
44843;DHT22;31884;52.538;13.820;2023-05-08T01:00:52;6.30;99.90
44843;DHT22;31884;52.538;13.820;2023-05-08T01:03:20;6.30;99.90
44843;DHT22;31884;52.538;13.820;2023-05-08T01:05:47;6.30;99.90
44843;DHT22;31884;52.538;13.820;2023-05-08T01:08:13;6.20;99.90
44843;DHT22;31884;52.538;13.820;2023-05-08T01:11:05;6.20;99.90
44843;DHT22;31884;52.538;13.820;2023-05-08T01:14:05;6.20;99.90
44843;DHT22;31884;52.538;13.820;2023-05-08T01:21:59;6.00;99.90
44843;DHT22;31884;52.538;13.820;2023-05-08T01:32:53;5.90;99.90
44843;DHT22;31884;52.538;13.820;2023-05-08T01:35:33;5.80;99.90
44843;DHT22;31884;52.538;13.820;2023-05-08T01:41:02;5.80;99.90
44843;DHT22;31884;52.538;13.820;2023-05-08T01:46:15;5.70;99.90
44843;DHT22;31884;52.538;13.820;2023-05-08T01:48:48;5.70;99.90
44843;DHT22;31884;52.538;13.820;2023-05-08T01:51:17;5.60;99.90
44843;DHT22;31884;52.538;13.820;2023-05-08T01:53:48;5.50;99.90
44843;DHT22;31884;52.538;13.820;2023-05-08T01:56:20;5.50;99.90
44843;DHT22;31884;52.538;13.820;2023-05-08T01:58:47;5.40;99.90
44843;DHT22;31884;52.538;13.820;2023-05-08T02:01:14;5.40;99.90
44843;DHT22;31884;52.538;13.820;2023-05-08T02:03:43;5.40;99.90
44843;DHT22;31884;52.538;13.820;2023-05-08T02:06:13;5.30;99.90
44843;DHT22;31884;52.538;13.820;2023-05-08T02:08:43;5.30;99.90
44843;DHT22;31884;52.538;13.820;2023-05-08T02:11:11;5.20;99.90
44843;DHT22;31884;52.538;13.820;2023-05-08T02:13:38;5.20;99.90
44843;DHT22;31884;52.538;13.820;2023-05-08T02:16:07;5.10;99.90
44843;DHT22;31884;52.538;13.820;2023-05-08T02:18:33;5.10;99.90
44843;DHT22;31884;52.538;13.820;2023-05-08T02:21:01;5.00;99.90
44843;DHT22;31884;52.538;13.820;2023-05-08T02:23:28;5.00;99.90
44843;DHT22;31884;52.538;13.820;2023-05-08T02:25:55;4.90;99.90
44843;DHT22;31884;52.538;13.820;2023-05-08T02:28:22;4.90;99.90
44843;DHT22;31884;52.538;13.820;2023-05-08T02:30:49;4.90;99.90
44843;DHT22;31884;52.538;13.820;2023-05-08T02:33:17;4.80;99.90
44843;DHT22;31884;52.538;13.820;2023-05-08T02:35:44;4.80;99.90
44843;DHT22;31884;52.538;13.820;2023-05-08T02:38:13;4.70;99.90
44843;DHT22;31884;52.538;13.820;2023-05-08T02:40:44;4.70;99.90
44843;DHT22;31884;52.538;13.820;2023-05-08T02:43:10;4.60;99.90
44843;DHT22;31884;52.538;13.820;2023-05-08T02:45:42;4.50;99.90
44843;DHT22;31884;52.538;13.820;2023-05-08T02:48:22;4.50;99.90
44843;DHT22;31884;52.538;13.820;2023-05-08T02:51:02;4.40;99.90
44843;DHT22;31884;52.538;13.820;2023-05-08T02:53:45;4.40;99.90
44843;DHT22;31884;52.538;13.820;2023-05-08T02:56:38;4.40;99.90
44843;DHT22;31884;52.538;13.820;2023-05-08T03:02:20;4.30;99.90
44843;DHT22;31884;52.538;13.820;2023-05-08T03:04:53;4.30;99.90
44843;DHT22;31884;52.538;13.820;2023-05-08T03:07:21;4.30;99.90
44843;DHT22;31884;52.538;13.820;2023-05-08T03:09:50;4.30;99.90
44843;DHT22;31884;52.538;13.820;2023-05-08T03:12:22;4.20;99.90
44843;DHT22;31884;52.538;13.820;2023-05-08T03:14:59;4.20;99.90
44843;DHT22;31884;52.538;13.820;2023-05-08T03:17:29;4.20;99.90
44843;DHT22;31884;52.538;13.820;2023-05-08T03:19:59;4.10;99.90
44843;DHT22;31884;52.538;13.820;2023-05-08T03:22:27;4.10;99.90
44843;DHT22;31884;52.538;13.820;2023-05-08T03:24:54;4.10;99.90
44843;DHT22;31884;52.538;13.820;2023-05-08T03:27:21;4.10;99.90
44843;DHT22;31884;52.538;13.820;2023-05-08T03:29:48;4.10;99.90
44843;DHT22;31884;52.538;13.820;2023-05-08T03:32:16;4.10;99.90
44843;DHT22;31884;52.538;13.820;2023-05-08T03:34:42;4.10;99.90
44843;DHT22;31884;52.538;13.820;2023-05-08T03:37:07;4.10;99.90
44843;DHT22;31884;52.538;13.820;2023-05-08T03:39:33;4.10;99.90
44843;DHT22;31884;52.538;13.820;2023-05-08T03:41:59;4.20;99.90
44843;DHT22;31884;52.538;13.820;2023-05-08T03:44:25;4.20;99.90
44843;DHT22;31884;52.538;13.820;2023-05-08T03:46:54;4.20;99.90
44843;DHT22;31884;52.538;13.820;2023-05-08T03:49:24;4.30;99.90
44843;DHT22;31884;52.538;13.820;2023-05-08T03:51:53;4.30;99.90
44843;DHT22;31884;52.538;13.820;2023-05-08T03:54:20;4.30;99.90
44843;DHT22;31884;52.538;13.820;2023-05-08T03:56:50;4.30;99.90
44843;DHT22;31884;52.538;13.820;2023-05-08T03:59:23;4.40;99.90
44843;DHT22;31884;52.538;13.820;2023-05-08T04:02:28;4.40;99.90
44843;DHT22;31884;52.538;13.820;2023-05-08T04:07:40;4.50;99.90
44843;DHT22;31884;52.538;13.820;2023-05-08T04:13:06;5.20;99.90
44843;DHT22;31884;52.538;13.820;2023-05-08T04:15:37;6.30;99.90
44843;DHT22;31884;52.538;13.820;2023-05-08T04:18:06;7.20;99.90
44843;DHT22;31884;52.538;13.820;2023-05-08T04:20:32;8.10;99.90
44843;DHT22;31884;52.538;13.820;2023-05-08T04:22:58;8.90;95.50
44843;DHT22;31884;52.538;13.820;2023-05-08T04:25:25;9.60;97.00
44843;DHT22;31884;52.538;13.820;2023-05-08T04:27:51;10.20;90.50
44843;DHT22;31884;52.538;13.820;2023-05-08T04:30:18;10.90;79.90
44843;DHT22;31884;52.538;13.820;2023-05-08T04:32:44;11.20;77.10
44843;DHT22;31884;52.538;13.820;2023-05-08T04:35:10;11.80;70.30
44843;DHT22;31884;52.538;13.820;2023-05-08T04:37:37;12.10;72.30
44843;DHT22;31884;52.538;13.820;2023-05-08T04:40:03;12.40;63.30
44843;DHT22;31884;52.538;13.820;2023-05-08T04:42:29;12.70;70.30
44843;DHT22;31884;52.538;13.820;2023-05-08T04:44:55;13.30;62.70
44843;DHT22;31884;52.538;13.820;2023-05-08T04:47:20;13.20;62.40
44843;DHT22;31884;52.538;13.820;2023-05-08T04:49:46;12.80;53.90
44843;DHT22;31884;52.538;13.820;2023-05-08T04:52:12;13.10;59.50
44843;DHT22;31884;52.538;13.820;2023-05-08T04:54:37;13.30;58.00
44843;DHT22;31884;52.538;13.820;2023-05-08T04:57:03;13.90;55.40
44843;DHT22;31884;52.538;13.820;2023-05-08T04:59:29;14.40;46.80
44843;DHT22;31884;52.538;13.820;2023-05-08T05:01:55;14.40;48.50
44843;DHT22;31884;52.538;13.820;2023-05-08T05:04:21;14.70;55.70
44843;DHT22;31884;52.538;13.820;2023-05-08T05:06:47;15.40;54.70
44843;DHT22;31884;52.538;13.820;2023-05-08T05:09:12;15.30;43.20
44843;DHT22;31884;52.538;13.820;2023-05-08T05:11:38;15.40;42.50
44843;DHT22;31884;52.538;13.820;2023-05-08T05:14:03;16.10;48.70
44843;DHT22;31884;52.538;13.820;2023-05-08T05:16:29;16.10;41.30
44843;DHT22;31884;52.538;13.820;2023-05-08T05:18:54;16.00;32.50
44843;DHT22;31884;52.538;13.820;2023-05-08T05:21:20;16.30;33.30
44843;DHT22;31884;52.538;13.820;2023-05-08T05:23:45;15.90;31.50
44843;DHT22;31884;52.538;13.820;2023-05-08T05:26:11;15.30;35.70
44843;DHT22;31884;52.538;13.820;2023-05-08T05:28:36;15.80;37.70
44843;DHT22;31884;52.538;13.820;2023-05-08T05:31:02;15.90;30.50
44843;DHT22;31884;52.538;13.820;2023-05-08T05:33:28;15.40;30.60
44843;DHT22;31884;52.538;13.820;2023-05-08T05:35:53;15.80;33.70
44843;DHT22;31884;52.538;13.820;2023-05-08T05:38:19;16.30;28.80
44843;DHT22;31884;52.538;13.820;2023-05-08T05:40:44;16.80;32.90
44843;DHT22;31884;52.538;13.820;2023-05-08T05:43:10;17.60;31.80
44843;DHT22;31884;52.538;13.820;2023-05-08T05:45:35;18.00;29.40
44843;DHT22;31884;52.538;13.820;2023-05-08T05:48:01;18.60;27.20
44843;DHT22;31884;52.538;13.820;2023-05-08T05:50:27;19.00;27.00
44843;DHT22;31884;52.538;13.820;2023-05-08T05:52:53;17.60;23.00
44843;DHT22;31884;52.538;13.820;2023-05-08T05:55:19;17.50;23.10
44843;DHT22;31884;52.538;13.820;2023-05-08T05:57:45;17.50;27.60
44843;DHT22;31884;52.538;13.820;2023-05-08T06:00:10;17.60;23.10
44843;DHT22;31884;52.538;13.820;2023-05-08T06:02:36;18.20;24.90
44843;DHT22;31884;52.538;13.820;2023-05-08T06:05:02;18.70;25.70
44843;DHT22;31884;52.538;13.820;2023-05-08T06:07:29;19.30;21.80
44843;DHT22;31884;52.538;13.820;2023-05-08T06:09:54;19.90;20.10
44843;DHT22;31884;52.538;13.820;2023-05-08T06:12:20;19.90;17.00
44843;DHT22;31884;52.538;13.820;2023-05-08T06:14:46;20.80;22.10
44843;DHT22;31884;52.538;13.820;2023-05-08T06:17:12;21.50;18.40
44843;DHT22;31884;52.538;13.820;2023-05-08T06:19:37;21.60;16.70
44843;DHT22;31884;52.538;13.820;2023-05-08T06:22:03;22.00;13.00
44843;DHT22;31884;52.538;13.820;2023-05-08T06:24:28;20.80;14.20
44843;DHT22;31884;52.538;13.820;2023-05-08T06:26:54;21.10;11.20
44843;DHT22;31884;52.538;13.820;2023-05-08T06:29:19;19.70;13.40
44843;DHT22;31884;52.538;13.820;2023-05-08T06:31:46;19.30;16.60
44843;DHT22;31884;52.538;13.820;2023-05-08T06:34:11;20.20;14.90
44843;DHT22;31884;52.538;13.820;2023-05-08T06:36:37;20.90;16.80
44843;DHT22;31884;52.538;13.820;2023-05-08T06:39:05;21.30;13.50
44843;DHT22;31884;52.538;13.820;2023-05-08T06:41:31;21.60;14.10
44843;DHT22;31884;52.538;13.820;2023-05-08T06:43:57;21.10;12.10
44843;DHT22;31884;52.538;13.820;2023-05-08T06:46:23;20.90;10.70
44843;DHT22;31884;52.538;13.820;2023-05-08T06:48:48;20.60;14.10
44843;DHT22;31884;52.538;13.820;2023-05-08T06:51:13;21.70;15.10
44843;DHT22;31884;52.538;13.820;2023-05-08T06:53:39;22.10;8.30
44843;DHT22;31884;52.538;13.820;2023-05-08T06:56:05;22.20;9.60
44843;DHT22;31884;52.538;13.820;2023-05-08T06:58:30;22.90;7.30
44843;DHT22;31884;52.538;13.820;2023-05-08T07:00:58;22.90;10.30
44843;DHT22;31884;52.538;13.820;2023-05-08T07:03:24;23.80;8.10
44843;DHT22;31884;52.538;13.820;2023-05-08T07:05:50;24.10;12.10
44843;DHT22;31884;52.538;13.820;2023-05-08T07:08:15;23.40;8.30
44843;DHT22;31884;52.538;13.820;2023-05-08T07:10:41;23.10;8.60
44843;DHT22;31884;52.538;13.820;2023-05-08T07:13:06;22.50;5.70
44843;DHT22;31884;52.538;13.820;2023-05-08T07:15:32;22.60;8.10
44843;DHT22;31884;52.538;13.820;2023-05-08T07:17:57;23.10;5.90
44843;DHT22;31884;52.538;13.820;2023-05-08T07:20:23;24.20;10.10
44843;DHT22;31884;52.538;13.820;2023-05-08T07:22:49;24.40;8.70
44843;DHT22;31884;52.538;13.820;2023-05-08T07:25:14;22.90;3.10
44843;DHT22;31884;52.538;13.820;2023-05-08T07:27:41;21.70;7.80
44843;DHT22;31884;52.538;13.820;2023-05-08T07:30:07;22.70;6.60
44843;DHT22;31884;52.538;13.820;2023-05-08T07:32:33;22.50;4.70
44843;DHT22;31884;52.538;13.820;2023-05-08T07:34:58;22.30;4.10
44843;DHT22;31884;52.538;13.820;2023-05-08T07:37:24;21.60;5.80
44843;DHT22;31884;52.538;13.820;2023-05-08T07:39:50;22.00;3.20
44843;DHT22;31884;52.538;13.820;2023-05-08T07:42:15;20.90;4.60
44843;DHT22;31884;52.538;13.820;2023-05-08T07:44:42;21.70;8.60
44843;DHT22;31884;52.538;13.820;2023-05-08T07:47:08;22.70;4.10
44843;DHT22;31884;52.538;13.820;2023-05-08T07:49:33;22.80;4.50
44843;DHT22;31884;52.538;13.820;2023-05-08T07:51:59;22.40;3.00
44843;DHT22;31884;52.538;13.820;2023-05-08T07:54:24;20.10;4.20
44843;DHT22;31884;52.538;13.820;2023-05-08T07:56:50;19.60;7.00
44843;DHT22;31884;52.538;13.820;2023-05-08T07:59:16;19.80;6.30
44843;DHT22;31884;52.538;13.820;2023-05-08T08:01:41;19.30;5.60
44843;DHT22;31884;52.538;13.820;2023-05-08T08:04:14;18.90;6.10
44843;DHT22;31884;52.538;13.820;2023-05-08T08:06:40;18.30;6.60
44843;DHT22;31884;52.538;13.820;2023-05-08T08:09:05;18.60;5.70
44843;DHT22;31884;52.538;13.820;2023-05-08T08:11:31;18.20;7.10
44843;DHT22;31884;52.538;13.820;2023-05-08T08:13:56;18.20;7.50
44843;DHT22;31884;52.538;13.820;2023-05-08T08:16:22;18.50;6.20
44843;DHT22;31884;52.538;13.820;2023-05-08T08:18:47;18.20;6.40
44843;DHT22;31884;52.538;13.820;2023-05-08T08:21:13;17.70;8.70
44843;DHT22;31884;52.538;13.820;2023-05-08T08:23:38;18.10;9.70
44843;DHT22;31884;52.538;13.820;2023-05-08T08:26:04;18.40;9.40
44843;DHT22;31884;52.538;13.820;2023-05-08T08:28:29;19.00;11.20
44843;DHT22;31884;52.538;13.820;2023-05-08T08:30:55;18.80;5.80
44843;DHT22;31884;52.538;13.820;2023-05-08T08:33:21;18.00;5.90
44843;DHT22;31884;52.538;13.820;2023-05-08T08:35:46;17.10;7.60
44843;DHT22;31884;52.538;13.820;2023-05-08T08:38:12;17.00;8.40
44843;DHT22;31884;52.538;13.820;2023-05-08T08:40:39;17.10;8.00
44843;DHT22;31884;52.538;13.820;2023-05-08T08:43:05;17.40;8.10
44843;DHT22;31884;52.538;13.820;2023-05-08T08:45:30;17.40;6.80
44843;DHT22;31884;52.538;13.820;2023-05-08T08:48:00;17.00;7.60
44843;DHT22;31884;52.538;13.820;2023-05-08T08:50:26;17.30;10.10
44843;DHT22;31884;52.538;13.820;2023-05-08T08:53:06;17.70;8.10
44843;DHT22;31884;52.538;13.820;2023-05-08T08:55:33;17.70;8.20
44843;DHT22;31884;52.538;13.820;2023-05-08T08:58:17;17.90;8.70
44843;DHT22;31884;52.538;13.820;2023-05-08T09:00:45;17.60;6.30
44843;DHT22;31884;52.538;13.820;2023-05-08T09:03:12;17.10;8.90
44843;DHT22;31884;52.538;13.820;2023-05-08T09:05:39;16.90;6.30
44843;DHT22;31884;52.538;13.820;2023-05-08T09:08:05;16.70;6.70
44843;DHT22;31884;52.538;13.820;2023-05-08T09:10:31;16.20;8.00
44843;DHT22;31884;52.538;13.820;2023-05-08T09:12:57;15.90;7.40
44843;DHT22;31884;52.538;13.820;2023-05-08T09:15:22;15.60;8.80
44843;DHT22;31884;52.538;13.820;2023-05-08T09:17:48;15.60;9.20
44843;DHT22;31884;52.538;13.820;2023-05-08T09:20:13;15.60;9.00
44843;DHT22;31884;52.538;13.820;2023-05-08T09:22:41;15.50;9.00
44843;DHT22;31884;52.538;13.820;2023-05-08T09:25:07;15.70;9.30
44843;DHT22;31884;52.538;13.820;2023-05-08T09:27:33;15.90;8.80
44843;DHT22;31884;52.538;13.820;2023-05-08T09:32:31;15.90;8.30
44843;DHT22;31884;52.538;13.820;2023-05-08T09:34:57;15.60;8.80
44843;DHT22;31884;52.538;13.820;2023-05-08T09:37:22;15.90;10.00
44843;DHT22;31884;52.538;13.820;2023-05-08T09:39:49;16.30;8.10
44843;DHT22;31884;52.538;13.820;2023-05-08T09:42:14;16.20;8.80
44843;DHT22;31884;52.538;13.820;2023-05-08T09:44:52;16.30;8.70
44843;DHT22;31884;52.538;13.820;2023-05-08T09:47:22;16.20;9.50
44843;DHT22;31884;52.538;13.820;2023-05-08T09:50:02;16.10;9.30
44843;DHT22;31884;52.538;13.820;2023-05-08T09:52:29;16.20;8.70
44843;DHT22;31884;52.538;13.820;2023-05-08T09:57:24;16.20;9.10
44843;DHT22;31884;52.538;13.820;2023-05-08T09:59:50;16.10;8.80
44843;DHT22;31884;52.538;13.820;2023-05-08T10:02:15;15.70;9.00
44843;DHT22;31884;52.538;13.820;2023-05-08T10:04:41;15.50;9.70
44843;DHT22;31884;52.538;13.820;2023-05-08T10:07:07;15.70;10.30
44843;DHT22;31884;52.538;13.820;2023-05-08T10:09:33;15.80;9.70
44843;DHT22;31884;52.538;13.820;2023-05-08T10:11:58;15.90;8.90
44843;DHT22;31884;52.538;13.820;2023-05-08T10:14:24;15.90;9.90
44843;DHT22;31884;52.538;13.820;2023-05-08T10:16:51;15.70;10.20
44843;DHT22;31884;52.538;13.820;2023-05-08T10:19:22;15.70;10.60
44843;DHT22;31884;52.538;13.820;2023-05-08T10:21:49;15.40;9.20
44843;DHT22;31884;52.538;13.820;2023-05-08T10:24:17;15.30;9.80
44843;DHT22;31884;52.538;13.820;2023-05-08T10:26:53;15.40;10.60
44843;DHT22;31884;52.538;13.820;2023-05-08T10:29:27;15.50;11.20
44843;DHT22;31884;52.538;13.820;2023-05-08T10:31:58;15.50;12.10
44843;DHT22;31884;52.538;13.820;2023-05-08T10:34:26;15.40;11.30
44843;DHT22;31884;52.538;13.820;2023-05-08T10:36:52;14.90;10.80
44843;DHT22;31884;52.538;13.820;2023-05-08T10:39:18;15.20;11.90
44843;DHT22;31884;52.538;13.820;2023-05-08T10:41:45;15.30;10.40
44843;DHT22;31884;52.538;13.820;2023-05-08T10:44:12;15.20;11.30
44843;DHT22;31884;52.538;13.820;2023-05-08T10:46:47;15.30;11.20
44843;DHT22;31884;52.538;13.820;2023-05-08T10:49:46;15.50;11.60
44843;DHT22;31884;52.538;13.820;2023-05-08T10:52:23;15.60;11.10
44843;DHT22;31884;52.538;13.820;2023-05-08T10:57:29;15.60;12.30
44843;DHT22;31884;52.538;13.820;2023-05-08T10:59:54;15.60;12.70
44843;DHT22;31884;52.538;13.820;2023-05-08T11:02:27;15.60;11.60
44843;DHT22;31884;52.538;13.820;2023-05-08T11:04:55;15.50;10.60
44843;DHT22;31884;52.538;13.820;2023-05-08T11:07:29;15.60;12.10
44843;DHT22;31884;52.538;13.820;2023-05-08T11:10:05;15.60;10.10
44843;DHT22;31884;52.538;13.820;2023-05-08T11:12:31;15.60;9.70
44843;DHT22;31884;52.538;13.820;2023-05-08T11:15:06;15.50;9.50
44843;DHT22;31884;52.538;13.820;2023-05-08T11:17:32;15.50;9.70
44843;DHT22;31884;52.538;13.820;2023-05-08T11:20:05;15.50;11.00
44843;DHT22;31884;52.538;13.820;2023-05-08T11:22:34;15.60;10.50
44843;DHT22;31884;52.538;13.820;2023-05-08T11:25:10;15.60;11.30
44843;DHT22;31884;52.538;13.820;2023-05-08T11:33:19;15.80;10.20
44843;DHT22;31884;52.538;13.820;2023-05-08T11:35:49;15.80;10.00
44843;DHT22;31884;52.538;13.820;2023-05-08T11:38:34;15.70;9.70
44843;DHT22;31884;52.538;13.820;2023-05-08T11:41:19;15.80;9.60
44843;DHT22;31884;52.538;13.820;2023-05-08T11:43:53;15.80;10.40
44843;DHT22;31884;52.538;13.820;2023-05-08T11:46:22;15.90;8.50
44843;DHT22;31884;52.538;13.820;2023-05-08T11:48:59;15.90;9.30
44843;DHT22;31884;52.538;13.820;2023-05-08T11:51:30;16.00;9.30
44843;DHT22;31884;52.538;13.820;2023-05-08T11:53:55;16.00;9.20
44843;DHT22;31884;52.538;13.820;2023-05-08T11:56:21;15.90;8.60
44843;DHT22;31884;52.538;13.820;2023-05-08T11:58:47;15.80;10.40
44843;DHT22;31884;52.538;13.820;2023-05-08T12:01:18;15.90;10.40
44843;DHT22;31884;52.538;13.820;2023-05-08T12:03:44;16.00;11.10
44843;DHT22;31884;52.538;13.820;2023-05-08T12:06:09;16.10;9.40
44843;DHT22;31884;52.538;13.820;2023-05-08T12:08:37;16.10;9.70
44843;DHT22;31884;52.538;13.820;2023-05-08T12:11:04;16.20;9.10
44843;DHT22;31884;52.538;13.820;2023-05-08T12:13:29;16.20;10.20
44843;DHT22;31884;52.538;13.820;2023-05-08T12:15:56;16.30;10.80
44843;DHT22;31884;52.538;13.820;2023-05-08T12:18:24;16.40;10.40
44843;DHT22;31884;52.538;13.820;2023-05-08T12:20:56;16.50;9.40
44843;DHT22;31884;52.538;13.820;2023-05-08T12:23:24;16.50;9.10
44843;DHT22;31884;52.538;13.820;2023-05-08T12:25:52;16.50;6.90
44843;DHT22;31884;52.538;13.820;2023-05-08T12:28:18;16.50;8.30
44843;DHT22;31884;52.538;13.820;2023-05-08T12:30:44;16.50;6.60
44843;DHT22;31884;52.538;13.820;2023-05-08T12:33:10;16.50;6.90
44843;DHT22;31884;52.538;13.820;2023-05-08T12:35:37;16.50;7.60
44843;DHT22;31884;52.538;13.820;2023-05-08T12:38:06;16.40;7.60
44843;DHT22;31884;52.538;13.820;2023-05-08T12:40:39;16.30;8.20
44843;DHT22;31884;52.538;13.820;2023-05-08T12:43:06;16.40;8.10
44843;DHT22;31884;52.538;13.820;2023-05-08T12:45:34;16.40;8.00
44843;DHT22;31884;52.538;13.820;2023-05-08T12:48:08;16.50;8.00
44843;DHT22;31884;52.538;13.820;2023-05-08T12:50:36;16.50;7.20
44843;DHT22;31884;52.538;13.820;2023-05-08T12:53:04;16.50;7.90
44843;DHT22;31884;52.538;13.820;2023-05-08T12:55:31;16.60;6.70
44843;DHT22;31884;52.538;13.820;2023-05-08T13:00:24;16.60;6.30
44843;DHT22;31884;52.538;13.820;2023-05-08T13:02:54;16.60;7.00
44843;DHT22;31884;52.538;13.820;2023-05-08T13:05:23;16.60;7.80
44843;DHT22;31884;52.538;13.820;2023-05-08T13:07:49;16.60;7.10
44843;DHT22;31884;52.538;13.820;2023-05-08T13:10:15;16.70;7.10
44843;DHT22;31884;52.538;13.820;2023-05-08T13:12:43;16.70;7.70
44843;DHT22;31884;52.538;13.820;2023-05-08T13:15:09;16.70;7.60
44843;DHT22;31884;52.538;13.820;2023-05-08T13:17:35;16.70;8.30
44843;DHT22;31884;52.538;13.820;2023-05-08T13:20:00;16.70;7.60
44843;DHT22;31884;52.538;13.820;2023-05-08T13:22:28;16.80;7.30
44843;DHT22;31884;52.538;13.820;2023-05-08T13:24:53;16.90;7.10
44843;DHT22;31884;52.538;13.820;2023-05-08T13:27:18;16.90;6.30
44843;DHT22;31884;52.538;13.820;2023-05-08T13:29:44;16.90;4.00
44843;DHT22;31884;52.538;13.820;2023-05-08T13:32:10;16.80;4.30
44843;DHT22;31884;52.538;13.820;2023-05-08T13:34:35;16.80;6.30
44843;DHT22;31884;52.538;13.820;2023-05-08T13:37:01;16.80;6.00
44843;DHT22;31884;52.538;13.820;2023-05-08T13:39:26;16.80;6.30
44843;DHT22;31884;52.538;13.820;2023-05-08T13:41:52;16.90;6.70
44843;DHT22;31884;52.538;13.820;2023-05-08T13:44:18;16.90;6.00
44843;DHT22;31884;52.538;13.820;2023-05-08T13:46:43;16.90;6.00
44843;DHT22;31884;52.538;13.820;2023-05-08T13:49:09;16.90;5.80
44843;DHT22;31884;52.538;13.820;2023-05-08T13:51:34;16.90;6.10
44843;DHT22;31884;52.538;13.820;2023-05-08T13:54:00;16.90;5.90
44843;DHT22;31884;52.538;13.820;2023-05-08T13:56:25;16.90;6.40
44843;DHT22;31884;52.538;13.820;2023-05-08T13:58:51;16.90;5.00
44843;DHT22;31884;52.538;13.820;2023-05-08T14:01:16;16.90;6.10
44843;DHT22;31884;52.538;13.820;2023-05-08T14:03:42;16.90;5.70
44843;DHT22;31884;52.538;13.820;2023-05-08T14:06:07;16.90;5.90
44843;DHT22;31884;52.538;13.820;2023-05-08T14:08:33;17.00;6.30
44843;DHT22;31884;52.538;13.820;2023-05-08T14:10:58;17.10;5.70
44843;DHT22;31884;52.538;13.820;2023-05-08T14:13:24;17.00;6.00
44843;DHT22;31884;52.538;13.820;2023-05-08T14:15:49;17.00;6.60
44843;DHT22;31884;52.538;13.820;2023-05-08T14:18:15;17.00;6.20
44843;DHT22;31884;52.538;13.820;2023-05-08T14:20:40;17.10;6.50
44843;DHT22;31884;52.538;13.820;2023-05-08T14:23:06;17.10;6.10
44843;DHT22;31884;52.538;13.820;2023-05-08T14:25:31;17.00;5.20
44843;DHT22;31884;52.538;13.820;2023-05-08T14:27:57;16.90;6.00
44843;DHT22;31884;52.538;13.820;2023-05-08T14:30:22;16.90;5.90
44843;DHT22;31884;52.538;13.820;2023-05-08T14:32:48;16.90;6.00
44843;DHT22;31884;52.538;13.820;2023-05-08T14:35:13;16.80;5.80
44843;DHT22;31884;52.538;13.820;2023-05-08T14:37:39;16.80;5.40
44843;DHT22;31884;52.538;13.820;2023-05-08T14:40:05;16.80;5.60
44843;DHT22;31884;52.538;13.820;2023-05-08T14:42:31;16.80;4.80
44843;DHT22;31884;52.538;13.820;2023-05-08T14:44:57;16.80;5.30
44843;DHT22;31884;52.538;13.820;2023-05-08T14:47:23;16.80;6.40
44843;DHT22;31884;52.538;13.820;2023-05-08T14:49:49;16.90;5.40
44843;DHT22;31884;52.538;13.820;2023-05-08T14:52:14;16.80;4.70
44843;DHT22;31884;52.538;13.820;2023-05-08T14:54:40;16.80;5.80
44843;DHT22;31884;52.538;13.820;2023-05-08T14:57:05;16.80;5.50
44843;DHT22;31884;52.538;13.820;2023-05-08T14:59:31;16.80;5.40
44843;DHT22;31884;52.538;13.820;2023-05-08T15:01:56;16.80;5.90
44843;DHT22;31884;52.538;13.820;2023-05-08T15:04:22;16.80;6.70
44843;DHT22;31884;52.538;13.820;2023-05-08T15:06:47;16.90;4.90
44843;DHT22;31884;52.538;13.820;2023-05-08T15:09:13;16.90;5.00
44843;DHT22;31884;52.538;13.820;2023-05-08T15:11:40;16.80;5.40
44843;DHT22;31884;52.538;13.820;2023-05-08T15:14:06;16.80;5.60
44843;DHT22;31884;52.538;13.820;2023-05-08T15:16:31;16.80;6.50
44843;DHT22;31884;52.538;13.820;2023-05-08T15:18:57;16.80;6.50
44843;DHT22;31884;52.538;13.820;2023-05-08T15:21:22;16.80;6.40
44843;DHT22;31884;52.538;13.820;2023-05-08T15:23:52;16.90;5.90
44843;DHT22;31884;52.538;13.820;2023-05-08T15:26:18;16.90;7.10
44843;DHT22;31884;52.538;13.820;2023-05-08T15:28:43;16.90;5.70
44843;DHT22;31884;52.538;13.820;2023-05-08T15:31:09;16.80;6.30
44843;DHT22;31884;52.538;13.820;2023-05-08T15:33:34;16.80;6.30
44843;DHT22;31884;52.538;13.820;2023-05-08T15:36:00;16.80;6.90
44843;DHT22;31884;52.538;13.820;2023-05-08T15:38:25;16.80;7.00
44843;DHT22;31884;52.538;13.820;2023-05-08T15:40:51;16.80;6.20
44843;DHT22;31884;52.538;13.820;2023-05-08T15:43:17;16.80;6.30
44843;DHT22;31884;52.538;13.820;2023-05-08T15:45:42;16.80;6.80
44843;DHT22;31884;52.538;13.820;2023-05-08T15:48:08;16.80;7.10
44843;DHT22;31884;52.538;13.820;2023-05-08T15:50:33;16.70;7.60
44843;DHT22;31884;52.538;13.820;2023-05-08T15:52:59;16.70;7.10
44843;DHT22;31884;52.538;13.820;2023-05-08T15:55:24;16.60;7.60
44843;DHT22;31884;52.538;13.820;2023-05-08T15:57:50;16.60;7.90
44843;DHT22;31884;52.538;13.820;2023-05-08T16:00:15;16.60;8.30
44843;DHT22;31884;52.538;13.820;2023-05-08T16:02:41;16.60;8.40
44843;DHT22;31884;52.538;13.820;2023-05-08T16:05:07;16.60;8.80
44843;DHT22;31884;52.538;13.820;2023-05-08T16:07:32;16.70;8.90
44843;DHT22;31884;52.538;13.820;2023-05-08T16:09:58;16.60;7.70
44843;DHT22;31884;52.538;13.820;2023-05-08T16:12:23;16.60;8.90
44843;DHT22;31884;52.538;13.820;2023-05-08T16:14:49;16.60;7.70